createdAt,value
2018-07-13T00:02:12.804Z,18.24
2018-07-13T00:04:41.381Z,18.21
2018-07-13T00:07:09.786Z,18.17
2018-07-13T00:09:38.213Z,18.13
2018-07-13T00:12:06.647Z,18.12
2018-07-13T00:14:35.083Z,18.09
2018-07-13T00:17:03.814Z,18.04
2018-07-13T00:19:32.241Z,18.02
2018-07-13T00:22:00.651Z,17.97
2018-07-13T00:24:29.088Z,17.89
2018-07-13T00:26:57.503Z,17.83
2018-07-13T00:29:25.933Z,17.78
2018-07-13T00:31:54.343Z,17.73
2018-07-13T00:34:22.773Z,17.68
2018-07-13T00:36:51.188Z,17.64
2018-07-13T00:39:19.614Z,17.60
2018-07-13T00:41:48.031Z,17.59
2018-07-13T00:44:16.467Z,17.56
2018-07-13T00:46:44.874Z,17.54
2018-07-13T00:49:13.306Z,17.52
2018-07-13T00:51:41.735Z,17.50
2018-07-13T00:54:10.174Z,17.50
2018-07-13T00:56:38.578Z,17.47
2018-07-13T00:59:07.008Z,17.43
2018-07-13T01:01:35.422Z,17.42
2018-07-13T01:04:03.849Z,17.38
2018-07-13T01:06:32.268Z,17.35
2018-07-13T01:09:00.689Z,17.32
2018-07-13T01:11:29.130Z,17.29
2018-07-13T01:13:57.559Z,17.27
2018-07-13T01:16:25.974Z,17.25
2018-07-13T01:18:54.405Z,17.23
2018-07-13T01:21:22.815Z,17.20
2018-07-13T01:23:51.251Z,17.18
2018-07-13T01:26:19.682Z,17.16
2018-07-13T01:28:48.112Z,17.15
2018-07-13T01:31:16.545Z,17.12
2018-07-13T01:33:44.999Z,17.13
2018-07-13T01:36:13.406Z,17.12
2018-07-13T01:38:41.822Z,17.12
2018-07-13T01:41:10.245Z,17.11
2018-07-13T01:43:38.706Z,17.08
2018-07-13T01:46:07.230Z,17.07
2018-07-13T01:48:35.634Z,17.03
2018-07-13T01:51:04.099Z,17.02
2018-07-13T01:53:32.522Z,16.99
2018-07-13T01:56:00.949Z,16.95
2018-07-13T01:58:29.362Z,16.94
2018-07-13T02:00:57.791Z,16.92
2018-07-13T02:03:26.222Z,16.91
2018-07-13T02:05:54.654Z,16.89
2018-07-13T02:08:23.053Z,16.88
2018-07-13T02:10:51.511Z,16.86
2018-07-13T02:13:19.923Z,16.85
2018-07-13T02:15:48.362Z,16.83
2018-07-13T02:18:16.788Z,16.83
2018-07-13T02:20:45.216Z,16.81
2018-07-13T02:23:13.633Z,16.80
2018-07-13T02:25:42.069Z,16.79
2018-07-13T02:28:10.474Z,16.78
2018-07-13T02:30:38.902Z,16.77
2018-07-13T02:33:07.310Z,16.75
2018-07-13T02:35:35.812Z,16.75
2018-07-13T02:38:04.235Z,16.75
2018-07-13T02:40:32.678Z,16.74
2018-07-13T02:43:01.090Z,16.71
2018-07-13T02:45:29.518Z,16.69
2018-07-13T02:47:58.007Z,16.68
2018-07-13T02:50:26.435Z,16.66
2018-07-13T02:52:54.849Z,16.64
2018-07-13T02:55:23.282Z,16.63
2018-07-13T02:57:51.699Z,16.63
2018-07-13T03:00:20.155Z,16.61
2018-07-13T03:02:48.571Z,16.62
2018-07-13T03:05:17.003Z,16.62
2018-07-13T03:07:45.422Z,16.60
2018-07-13T03:10:13.864Z,16.59
2018-07-13T03:12:42.298Z,16.57
2018-07-13T03:15:10.827Z,16.55
2018-07-13T03:17:39.222Z,16.55
2018-07-13T03:20:07.649Z,16.53
2018-07-13T03:22:36.050Z,16.54
2018-07-13T03:25:04.550Z,16.54
2018-07-13T03:27:32.958Z,16.54
2018-07-13T03:30:01.386Z,16.54
2018-07-13T03:32:29.796Z,16.55
2018-07-13T03:34:58.247Z,16.55
2018-07-13T03:37:26.659Z,16.56
2018-07-13T03:39:55.062Z,16.57
2018-07-13T03:42:23.495Z,16.59
2018-07-13T03:44:51.898Z,16.59
2018-07-13T03:47:20.339Z,16.61
2018-07-13T03:49:48.751Z,16.63
2018-07-13T03:52:17.190Z,16.64
2018-07-13T03:54:45.608Z,16.65
2018-07-13T03:57:14.033Z,16.66
2018-07-13T03:59:42.438Z,16.66
2018-07-13T04:02:10.866Z,16.67
2018-07-13T04:04:39.276Z,16.69
2018-07-13T04:07:07.766Z,16.70
2018-07-13T04:09:36.151Z,16.69
2018-07-13T04:12:04.605Z,16.70
2018-07-13T04:14:33.021Z,16.68
2018-07-13T04:17:01.454Z,16.70
2018-07-13T04:19:29.862Z,16.71
2018-07-13T04:21:58.314Z,16.71
2018-07-13T04:24:26.730Z,16.73
2018-07-13T04:26:55.166Z,16.76
2018-07-13T04:29:23.575Z,16.80
2018-07-13T04:31:52.097Z,16.87
2018-07-13T04:34:20.540Z,16.95
2018-07-13T04:36:48.962Z,16.98
2018-07-13T04:39:17.375Z,17.04
2018-07-13T04:41:45.826Z,17.15
2018-07-13T04:44:14.237Z,17.23
2018-07-13T04:46:42.670Z,17.32
2018-07-13T04:49:11.082Z,17.40
2018-07-13T04:51:39.529Z,17.52
2018-07-13T04:54:07.954Z,17.64
2018-07-13T04:56:36.382Z,17.75
2018-07-13T04:59:04.845Z,17.85
2018-07-13T05:01:33.270Z,17.95
2018-07-13T05:04:01.675Z,18.03
2018-07-13T05:06:30.102Z,18.13
2018-07-13T05:08:58.511Z,18.22
2018-07-13T05:11:26.965Z,18.31
2018-07-13T05:13:55.383Z,18.40
2018-07-13T05:16:23.805Z,18.49
2018-07-13T05:18:52.213Z,18.59
2018-07-13T05:21:20.692Z,18.67
2018-07-13T05:23:49.104Z,18.74
2018-07-13T05:26:17.534Z,18.83
2018-07-13T05:28:45.966Z,18.90
2018-07-13T05:31:14.659Z,18.98
2018-07-13T05:33:43.140Z,19.07
2018-07-13T05:36:11.646Z,19.15
2018-07-13T05:38:40.199Z,19.24
2018-07-13T05:41:08.606Z,19.34
2018-07-13T05:43:37.038Z,19.45
2018-07-13T05:46:05.455Z,19.59
2018-07-13T05:48:34.554Z,19.73
2018-07-13T05:51:03.024Z,19.87
2018-07-13T05:53:31.618Z,19.99
2018-07-13T05:56:00.064Z,20.13
2018-07-13T05:58:28.611Z,20.24
2018-07-13T06:00:57.035Z,20.30
2018-07-13T06:03:25.535Z,20.35
2018-07-13T06:05:54.063Z,20.41
2018-07-13T06:08:22.515Z,20.46
2018-07-13T06:10:51.139Z,20.52
2018-07-13T06:13:19.587Z,20.58
2018-07-13T06:15:47.999Z,20.67
2018-07-13T06:18:16.428Z,20.75
2018-07-13T06:20:44.841Z,20.83
2018-07-13T06:23:13.458Z,20.92
2018-07-13T06:25:42.143Z,21.01
2018-07-13T06:28:10.581Z,21.09
2018-07-13T06:30:39.073Z,21.15
2018-07-13T06:33:08.099Z,21.21
2018-07-13T06:35:36.617Z,21.28
2018-07-13T06:38:05.723Z,21.34
2018-07-13T06:40:34.212Z,21.41
2018-07-13T06:43:02.618Z,21.49
2018-07-13T06:45:31.546Z,21.57
2018-07-13T06:47:59.982Z,21.65
2018-07-13T06:50:28.450Z,21.72
2018-07-13T06:52:56.874Z,21.76
2018-07-13T06:55:25.277Z,21.83
2018-07-13T06:58:04.990Z,21.88
2018-07-13T07:01:08.597Z,21.93
2018-07-13T07:04:48.213Z,21.99
2018-07-13T07:07:20.947Z,22.06
2018-07-13T07:09:52.300Z,22.06
2018-07-13T07:13:28.266Z,22.09
2018-07-13T07:15:56.695Z,22.11
2018-07-13T07:18:25.205Z,22.12
2018-07-13T07:20:53.973Z,22.13
2018-07-13T07:23:22.422Z,22.17
2018-07-13T07:25:50.865Z,22.16
2018-07-13T07:28:19.310Z,22.22
2018-07-13T07:30:47.750Z,22.21
2018-07-13T07:33:16.192Z,22.25
2018-07-13T07:35:44.603Z,22.28
2018-07-13T07:38:13.047Z,22.36
2018-07-13T07:40:41.563Z,22.46
2018-07-13T07:43:10.026Z,22.46
2018-07-13T07:45:38.446Z,22.48
2018-07-13T07:48:07.101Z,22.53
2018-07-13T07:50:35.714Z,22.51
2018-07-13T07:53:04.117Z,22.61
2018-07-13T07:55:32.550Z,22.63
2018-07-13T07:58:00.965Z,22.69
2018-07-13T08:00:30.406Z,22.82
2018-07-13T08:02:58.827Z,22.90
2018-07-13T08:05:27.263Z,22.99
2018-07-13T08:07:55.674Z,23.10
2018-07-13T08:10:24.111Z,23.19
2018-07-13T08:12:52.594Z,23.20
2018-07-13T08:15:21.041Z,23.18
2018-07-13T08:17:49.445Z,23.17
2018-07-13T08:20:20.735Z,23.18
2018-07-13T08:22:52.018Z,23.19
2018-07-13T08:25:21.017Z,23.24
2018-07-13T08:27:52.097Z,23.29
2018-07-13T08:30:32.053Z,23.33
2018-07-13T08:33:00.467Z,23.43
2018-07-13T08:35:28.869Z,23.52
2018-07-13T08:37:57.251Z,23.58
2018-07-13T08:40:25.695Z,23.58
2018-07-13T08:42:54.118Z,23.61
2018-07-13T08:45:22.527Z,23.67
2018-07-13T08:47:50.918Z,23.73
2018-07-13T08:50:19.342Z,23.84
2018-07-13T08:52:47.747Z,23.93
2018-07-13T08:55:16.858Z,23.95
2018-07-13T08:57:47.642Z,24.01
2018-07-13T09:00:16.069Z,24.04
2018-07-13T09:02:44.459Z,24.11
2018-07-13T09:05:12.885Z,24.13
2018-07-13T09:07:41.274Z,24.19
2018-07-13T09:10:12.047Z,24.31
2018-07-13T09:12:40.726Z,24.28
2018-07-13T09:15:09.994Z,24.27
2018-07-13T09:17:38.379Z,24.29
2018-07-13T09:20:08.335Z,24.21
2018-07-13T09:22:36.722Z,24.22
2018-07-13T09:25:05.214Z,24.24
2018-07-13T09:27:33.599Z,24.27
2018-07-13T09:30:02.005Z,24.33
2018-07-13T09:32:30.405Z,24.41
2018-07-13T09:34:58.871Z,24.49
2018-07-13T09:37:27.413Z,24.58
2018-07-13T09:39:55.822Z,24.66
2018-07-13T09:42:24.204Z,24.68
2018-07-13T09:44:52.611Z,24.70
2018-07-13T09:47:20.994Z,24.74
2018-07-13T09:49:49.405Z,24.76
2018-07-13T09:52:17.783Z,24.83
2018-07-13T09:54:46.198Z,24.84
2018-07-13T09:57:14.581Z,24.83
2018-07-13T09:59:43.122Z,24.87
2018-07-13T10:02:11.514Z,24.89
2018-07-13T10:04:39.923Z,24.98
2018-07-13T10:07:08.461Z,25.09
2018-07-13T10:09:36.842Z,25.18
2018-07-13T10:12:05.275Z,25.24
2018-07-13T10:14:33.884Z,25.28
2018-07-13T10:17:02.294Z,25.36
2018-07-13T10:19:30.721Z,25.43
2018-07-13T10:21:59.275Z,25.48
2018-07-13T10:24:28.162Z,25.56
2018-07-13T10:26:57.287Z,25.68
2018-07-13T10:29:29.943Z,25.76
2018-07-13T10:31:58.434Z,25.83
2018-07-13T10:34:26.822Z,25.89
2018-07-13T10:37:00.776Z,25.94
2018-07-13T10:39:29.240Z,26.00
2018-07-13T10:41:57.659Z,26.05
2018-07-13T10:44:26.029Z,26.14
2018-07-13T10:46:54.601Z,26.15
2018-07-13T10:49:22.986Z,26.21
2018-07-13T10:51:51.978Z,26.21
2018-07-13T10:54:20.642Z,26.19
2018-07-13T10:56:49.046Z,26.19
2018-07-13T10:59:17.544Z,26.23
2018-07-13T11:01:46.110Z,26.24
2018-07-13T11:04:14.982Z,26.33
2018-07-13T11:06:44.405Z,26.40
2018-07-13T11:09:12.778Z,26.47
2018-07-13T11:11:41.228Z,26.53
2018-07-13T11:14:09.878Z,26.58
2018-07-13T11:16:38.534Z,26.60
2018-07-13T11:19:06.947Z,26.67
2018-07-13T11:21:35.497Z,26.77
2018-07-13T11:24:03.874Z,26.85
2018-07-13T11:26:32.282Z,26.93
2018-07-13T11:29:00.923Z,26.97
2018-07-13T11:31:29.337Z,26.96
2018-07-13T11:33:57.722Z,27.04
2018-07-13T11:36:26.163Z,27.07
2018-07-13T11:38:54.529Z,27.11
2018-07-13T11:41:22.919Z,27.15
2018-07-13T11:43:51.791Z,27.19
2018-07-13T11:46:20.194Z,27.26
2018-07-13T11:48:48.570Z,27.35
2018-07-13T11:51:16.974Z,27.44
2018-07-13T11:53:45.379Z,27.51
2018-07-13T11:56:14.246Z,27.54
2018-07-13T11:58:42.626Z,27.60
2018-07-13T12:01:11.118Z,27.66
2018-07-13T12:03:39.498Z,27.73
2018-07-13T12:06:08.166Z,27.79
2018-07-13T12:08:36.622Z,27.87
2018-07-13T12:11:05.070Z,27.94
2018-07-13T12:13:33.449Z,27.91
2018-07-13T12:16:01.851Z,27.96
2018-07-13T12:18:30.363Z,27.97
2018-07-13T12:20:58.747Z,28.02
2018-07-13T12:23:27.163Z,28.09
2018-07-13T12:25:55.554Z,28.16
2018-07-13T12:28:24.295Z,28.20
2018-07-13T12:30:52.667Z,28.16
2018-07-13T12:33:21.071Z,28.21
2018-07-13T12:35:49.465Z,28.26
2018-07-13T12:38:17.882Z,28.32
2018-07-13T12:40:46.263Z,28.38
2018-07-13T12:43:14.667Z,28.44
2018-07-13T12:45:43.049Z,28.49
2018-07-13T12:48:11.544Z,28.53
2018-07-13T12:50:39.926Z,28.59
2018-07-13T12:53:08.335Z,28.58
2018-07-13T12:55:36.722Z,28.57
2018-07-13T12:58:05.291Z,28.61
2018-07-13T13:00:33.677Z,28.69
2018-07-13T13:03:02.091Z,28.75
2018-07-13T13:05:30.567Z,28.79
2018-07-13T13:07:59.133Z,28.82
2018-07-13T13:10:27.502Z,28.78
2018-07-13T13:12:56.116Z,28.82
2018-07-13T13:15:24.600Z,28.86
2018-07-13T13:17:52.913Z,28.90
2018-07-13T13:20:21.427Z,28.94
2018-07-13T13:22:49.959Z,28.98
2018-07-13T13:25:18.330Z,29.00
2018-07-13T13:27:46.730Z,29.00
2018-07-13T13:30:15.110Z,29.00
2018-07-13T13:32:43.519Z,29.04
2018-07-13T13:35:11.891Z,29.05
2018-07-13T13:37:40.297Z,29.04
2018-07-13T13:40:08.688Z,29.06
2018-07-13T13:42:37.073Z,29.06
2018-07-13T13:45:05.450Z,29.09
2018-07-13T13:47:33.843Z,29.11
2018-07-13T13:50:02.205Z,29.13
2018-07-13T13:52:30.598Z,29.14
2018-07-13T13:54:58.981Z,29.12
2018-07-13T13:57:27.390Z,29.13
2018-07-13T13:59:55.803Z,29.15
2018-07-13T14:02:24.183Z,29.15
2018-07-13T14:04:52.587Z,29.12
2018-07-13T14:07:20.990Z,29.00
2018-07-13T14:09:49.407Z,29.10
2018-07-13T14:12:17.874Z,29.10
2018-07-13T14:14:46.285Z,29.10
2018-07-13T14:17:14.671Z,29.09
2018-07-13T14:19:43.071Z,29.09
2018-07-13T14:22:11.601Z,29.08
2018-07-13T14:24:40.011Z,29.06
2018-07-13T14:27:08.381Z,29.07
2018-07-13T14:29:36.807Z,29.09
2018-07-13T14:32:05.593Z,29.13
2018-07-13T14:34:33.999Z,29.14
2018-07-13T14:37:02.446Z,29.15
2018-07-13T14:39:30.842Z,29.14
2018-07-13T14:41:59.215Z,29.13
2018-07-13T14:44:27.623Z,29.13
2018-07-13T14:46:56.043Z,29.13
2018-07-13T14:49:24.438Z,29.16
2018-07-13T14:51:52.915Z,29.18
2018-07-13T14:54:21.319Z,29.17
2018-07-13T14:56:49.701Z,29.16
2018-07-13T14:59:18.122Z,29.16
2018-07-13T15:01:46.504Z,29.13
2018-07-13T15:04:14.958Z,29.12
2018-07-13T15:06:43.378Z,28.98
2018-07-13T15:09:11.745Z,29.10
2018-07-13T15:11:40.143Z,29.10
2018-07-13T15:14:08.570Z,29.09
2018-07-13T15:16:36.946Z,29.09
2018-07-13T15:19:05.388Z,29.11
2018-07-13T15:21:33.763Z,29.11
2018-07-13T15:24:02.168Z,29.13
2018-07-13T15:26:30.551Z,29.15
2018-07-13T15:28:58.979Z,29.11
2018-07-13T15:31:27.365Z,29.12
2018-07-13T15:33:55.750Z,29.11
2018-07-13T15:36:24.118Z,29.13
2018-07-13T15:38:52.514Z,29.16
2018-07-13T15:41:20.898Z,29.17
2018-07-13T15:43:49.610Z,29.17
2018-07-13T15:46:17.978Z,29.19
2018-07-13T15:48:46.378Z,29.18
2018-07-13T15:51:14.763Z,29.17
2018-07-13T15:53:43.167Z,29.15
2018-07-13T15:56:11.533Z,29.13
2018-07-13T15:58:39.951Z,29.13
2018-07-13T16:01:08.358Z,29.14
2018-07-13T16:03:36.779Z,29.11
2018-07-13T16:06:05.162Z,29.12
2018-07-13T16:08:33.559Z,29.11
2018-07-13T16:11:01.964Z,29.09
2018-07-13T16:13:30.349Z,29.06
2018-07-13T16:15:58.778Z,29.07
2018-07-13T16:18:27.158Z,29.07
2018-07-13T16:20:55.562Z,29.11
2018-07-13T16:23:23.956Z,29.10
2018-07-13T16:25:52.359Z,29.07
2018-07-13T16:28:20.876Z,29.02
2018-07-13T16:30:49.150Z,29.03
2018-07-13T16:33:17.545Z,29.13
2018-07-13T16:35:45.921Z,29.32
2018-07-13T16:38:14.323Z,29.57
2018-07-13T16:40:42.731Z,29.82
2018-07-13T16:43:11.135Z,30.10
2018-07-13T16:45:39.510Z,30.32
2018-07-13T16:48:07.911Z,30.53
2018-07-13T16:50:36.321Z,30.75
2018-07-13T16:53:04.735Z,31.00
2018-07-13T16:55:33.114Z,31.25
2018-07-13T16:58:01.635Z,31.46
2018-07-13T17:00:30.144Z,31.69
2018-07-13T17:02:58.638Z,31.83
2018-07-13T17:05:27.134Z,31.98
2018-07-13T17:07:55.574Z,32.18
2018-07-13T17:10:23.992Z,32.27
2018-07-13T17:12:52.435Z,32.33
2018-07-13T17:15:20.844Z,32.41
2018-07-13T17:17:49.231Z,32.48
2018-07-13T17:20:17.724Z,32.55
2018-07-13T17:22:46.155Z,32.53
2018-07-13T17:25:14.591Z,32.48
2018-07-13T17:27:43.005Z,32.45
2018-07-13T17:30:11.879Z,32.44
2018-07-13T17:32:40.271Z,32.45
2018-07-13T17:35:08.706Z,32.42
2018-07-13T17:37:37.090Z,32.35
2018-07-13T17:40:05.859Z,32.26
2018-07-13T17:42:34.297Z,32.17
2018-07-13T17:45:02.706Z,32.07
2018-07-13T17:47:31.098Z,32.02
2018-07-13T17:49:59.511Z,31.93
2018-07-13T17:52:27.898Z,31.81
2018-07-13T17:54:56.362Z,31.50
2018-07-13T17:57:24.733Z,31.11
2018-07-13T17:59:53.160Z,30.71
2018-07-13T18:02:21.539Z,30.29
2018-07-13T18:04:49.938Z,29.87
2018-07-13T18:07:18.358Z,29.51
2018-07-13T18:09:46.761Z,29.14
2018-07-13T18:12:15.134Z,28.79
2018-07-13T18:14:43.525Z,28.47
2018-07-13T18:17:11.896Z,28.18
2018-07-13T18:19:40.327Z,27.90
2018-07-13T18:22:08.701Z,27.66
2018-07-13T18:24:37.115Z,27.46
2018-07-13T18:27:05.486Z,27.32
2018-07-13T18:29:33.864Z,27.21
2018-07-13T18:32:02.265Z,27.10
2018-07-13T18:34:31.855Z,27.01
2018-07-13T18:37:00.313Z,26.93
2018-07-13T18:39:28.691Z,26.82
2018-07-13T18:41:57.093Z,26.69
2018-07-13T18:44:25.919Z,26.57
2018-07-13T18:46:54.274Z,26.46
2018-07-13T18:49:22.644Z,26.33
2018-07-13T18:51:51.122Z,26.20
2018-07-13T18:54:19.599Z,26.07
2018-07-13T18:56:48.012Z,25.94
2018-07-13T18:59:16.386Z,25.84
2018-07-13T19:01:44.794Z,25.74
2018-07-13T19:04:13.193Z,25.68
2018-07-13T19:06:41.595Z,25.58
2018-07-13T19:09:10.607Z,25.51
2018-07-13T19:11:39.035Z,25.41
2018-07-13T19:14:07.410Z,25.32
2018-07-13T19:16:35.815Z,25.26
2018-07-13T19:19:04.190Z,25.18
2018-07-13T19:21:32.591Z,25.11
2018-07-13T19:24:01.083Z,25.03
2018-07-13T19:26:29.491Z,24.92
2018-07-13T19:28:57.865Z,24.84
2018-07-13T19:31:26.272Z,24.73
2018-07-13T19:33:54.773Z,24.65
2018-07-13T19:36:23.212Z,24.54
2018-07-13T19:38:51.594Z,24.44
2018-07-13T19:41:19.990Z,24.35
2018-07-13T19:43:48.822Z,24.23
2018-07-13T19:46:17.286Z,24.11
2018-07-13T19:48:45.670Z,24.01
2018-07-13T19:51:14.217Z,23.91
2018-07-13T19:53:42.614Z,23.84
2018-07-13T19:56:10.992Z,23.76
2018-07-13T19:58:39.400Z,23.69
2018-07-13T20:01:07.816Z,23.63
2018-07-13T20:03:36.214Z,23.56
2018-07-13T20:06:04.592Z,23.49
2018-07-13T20:08:33.047Z,23.42
2018-07-13T20:11:01.543Z,23.34
2018-07-13T20:13:29.879Z,23.27
2018-07-13T20:15:59.801Z,23.20
2018-07-13T20:18:28.218Z,23.12
2018-07-13T20:20:56.628Z,23.06
2018-07-13T20:23:25.018Z,22.99
2018-07-13T20:25:53.394Z,22.94
2018-07-13T20:28:21.794Z,22.87
2018-07-13T20:30:50.178Z,22.77
2018-07-13T20:33:18.607Z,22.69
2018-07-13T20:35:46.978Z,22.59
2018-07-13T20:38:15.390Z,22.52
2018-07-13T20:40:43.777Z,22.44
2018-07-13T20:43:12.179Z,22.37
2018-07-13T20:45:40.671Z,22.31
2018-07-13T20:48:09.065Z,22.27
2018-07-13T20:50:37.445Z,22.25
2018-07-13T20:53:05.847Z,22.23
2018-07-13T20:55:34.231Z,22.17
2018-07-13T20:58:02.638Z,22.17
2018-07-13T21:00:31.005Z,22.15
2018-07-13T21:02:59.444Z,22.12
2018-07-13T21:05:27.814Z,22.06
2018-07-13T21:07:56.315Z,22.02
2018-07-13T21:10:24.686Z,21.95
2018-07-13T21:12:53.067Z,21.89
2018-07-13T21:15:21.467Z,21.81
2018-07-13T21:17:49.834Z,21.74
2018-07-13T21:20:18.331Z,21.66
2018-07-13T21:22:46.638Z,21.60
2018-07-13T21:25:15.043Z,21.53
2018-07-13T21:27:43.439Z,21.47
2018-07-13T21:30:11.849Z,21.40
2018-07-13T21:32:40.386Z,21.33
2018-07-13T21:35:08.786Z,21.25
2018-07-13T21:37:37.188Z,21.19
2018-07-13T21:40:05.746Z,21.10
2018-07-13T21:42:34.114Z,21.01
2018-07-13T21:45:02.526Z,20.95
2018-07-13T21:47:30.889Z,20.87
2018-07-13T21:49:59.289Z,20.82
2018-07-13T21:52:27.666Z,20.76
2018-07-13T21:54:56.072Z,20.70
2018-07-13T21:57:24.578Z,20.64
2018-07-13T21:59:52.970Z,20.57
2018-07-13T22:02:21.386Z,20.52
2018-07-13T22:04:49.799Z,20.48
2018-07-13T22:07:18.218Z,20.43
2018-07-13T22:09:46.619Z,20.40
2018-07-13T22:12:15.008Z,20.35
2018-07-13T22:14:43.418Z,20.29
2018-07-13T22:17:11.810Z,20.24
2018-07-13T22:19:40.214Z,20.20
2018-07-13T22:22:08.595Z,20.17
2018-07-13T22:24:37.018Z,20.13
2018-07-13T22:27:05.683Z,20.10
2018-07-13T22:29:34.107Z,20.06
2018-07-13T22:32:02.491Z,20.04
2018-07-13T22:34:30.871Z,20.02
2018-07-13T22:36:59.278Z,19.96
2018-07-13T22:39:27.654Z,19.92
2018-07-13T22:41:56.051Z,19.87
2018-07-13T22:44:24.425Z,19.84
2018-07-13T22:46:52.830Z,19.78
2018-07-13T22:49:21.202Z,19.73
2018-07-13T22:51:49.611Z,19.67
2018-07-13T22:54:18.004Z,19.62
2018-07-13T22:56:46.398Z,19.55
2018-07-13T22:59:14.788Z,19.51
2018-07-13T23:01:43.208Z,19.49
2018-07-13T23:04:11.601Z,19.46
2018-07-13T23:06:40.066Z,19.43
2018-07-13T23:09:08.806Z,19.41
2018-07-13T23:11:37.277Z,19.37
2018-07-13T23:14:05.817Z,19.32
2018-07-13T23:16:35.823Z,19.27
2018-07-13T23:19:04.206Z,19.23
2018-07-13T23:21:32.650Z,19.17
2018-07-13T23:24:01.009Z,19.13
2018-07-13T23:26:29.474Z,19.10
2018-07-13T23:28:57.843Z,19.03
2018-07-13T23:31:26.244Z,19.01
2018-07-13T23:33:54.618Z,18.96
2018-07-13T23:36:23.022Z,18.93
2018-07-13T23:38:51.398Z,18.89
2018-07-13T23:41:19.815Z,18.86
2018-07-13T23:43:48.207Z,18.83
2018-07-13T23:46:16.610Z,18.82
2018-07-13T23:48:44.991Z,18.80
2018-07-13T23:51:13.414Z,18.77
2018-07-13T23:53:41.795Z,18.76
2018-07-13T23:56:10.178Z,18.74
2018-07-13T23:58:38.606Z,18.72
